createdAt,value
2023-05-20T00:01:07.320Z,16.50
2023-05-20T00:04:10.638Z,16.50
2023-05-20T00:07:15.370Z,16.40
2023-05-20T00:10:18.523Z,16.50
2023-05-20T00:13:21.710Z,16.50
2023-05-20T00:16:26.074Z,16.50
2023-05-20T00:19:29.325Z,16.50
2023-05-20T00:22:34.017Z,16.50
2023-05-20T00:25:37.362Z,16.40
2023-05-20T00:28:40.584Z,16.40
2023-05-20T00:31:43.798Z,16.40
2023-05-20T00:34:56.425Z,16.40
2023-05-20T00:38:00.992Z,16.40
2023-05-20T00:41:04.280Z,16.50
2023-05-20T00:44:07.454Z,16.50
2023-05-20T00:47:10.689Z,16.50
2023-05-20T00:50:14.097Z,16.40
2023-05-20T00:53:19.525Z,16.30
2023-05-20T00:56:22.992Z,16.40
2023-05-20T00:59:26.865Z,16.30
2023-05-20T01:02:31.256Z,16.30
2023-05-20T01:05:34.572Z,16.30
2023-05-20T01:08:39.348Z,16.20
2023-05-20T01:11:49.484Z,16.20
2023-05-20T01:14:59.187Z,16.20
2023-05-20T01:18:06.092Z,16.20
2023-05-20T01:21:12.063Z,16.10
2023-05-20T01:24:16.591Z,16.20
2023-05-20T01:27:20.707Z,16.10
2023-05-20T01:30:25.056Z,16.10
2023-05-20T01:33:31.197Z,16.10
2023-05-20T01:36:34.970Z,16.10
2023-05-20T01:39:45.253Z,16.10
2023-05-20T01:42:53.181Z,16.10
2023-05-20T01:45:56.744Z,16.10
2023-05-20T01:48:59.885Z,16.00
2023-05-20T01:52:03.472Z,15.90
2023-05-20T01:55:08.714Z,15.90
2023-05-20T01:58:11.822Z,15.90
2023-05-20T02:01:14.976Z,15.90
2023-05-20T02:04:19.182Z,15.90
2023-05-20T02:07:22.422Z,15.90
2023-05-20T02:10:26.913Z,15.90
2023-05-20T02:13:30.056Z,15.90
2023-05-20T02:16:33.475Z,15.90
2023-05-20T02:19:36.765Z,15.90
2023-05-20T02:22:39.952Z,15.90
2023-05-20T02:25:45.431Z,16.00
2023-05-20T02:28:50.888Z,16.00
2023-05-20T02:31:54.407Z,16.00
2023-05-20T02:34:57.689Z,16.00
2023-05-20T02:38:00.881Z,15.80
2023-05-20T02:41:05.558Z,15.80
2023-05-20T02:44:08.776Z,15.70
2023-05-20T02:47:12.083Z,15.70
2023-05-20T02:50:15.286Z,15.70
2023-05-20T02:53:18.446Z,15.70
2023-05-20T02:56:23.013Z,15.70
2023-05-20T02:59:26.116Z,15.80
2023-05-20T03:02:29.312Z,15.80
2023-05-20T03:05:32.828Z,15.90
2023-05-20T03:08:36.670Z,15.70
2023-05-20T03:11:41.160Z,15.70
2023-05-20T03:14:44.352Z,15.70
2023-05-20T03:17:47.517Z,15.80
2023-05-20T03:20:50.655Z,15.90
2023-05-20T03:23:53.764Z,15.90
2023-05-20T03:26:58.423Z,15.90
2023-05-20T03:30:01.696Z,15.90
2023-05-20T03:33:06.001Z,15.90
2023-05-20T03:36:09.221Z,15.90
2023-05-20T03:39:12.375Z,15.90
2023-05-20T03:42:17.003Z,15.90
2023-05-20T03:45:20.256Z,15.90
2023-05-20T03:48:23.438Z,16.00
2023-05-20T03:51:26.950Z,16.00
2023-05-20T03:54:31.616Z,16.00
2023-05-20T03:57:36.678Z,16.00
2023-05-20T04:00:40.107Z,16.10
2023-05-20T04:03:43.897Z,16.10
2023-05-20T04:06:47.368Z,16.10
2023-05-20T04:09:50.665Z,16.20
2023-05-20T04:12:55.360Z,16.20
2023-05-20T04:15:58.515Z,16.20
2023-05-20T04:19:02.817Z,16.30
2023-05-20T04:22:06.394Z,16.30
2023-05-20T04:25:09.987Z,16.40
2023-05-20T04:28:16.514Z,16.50
2023-05-20T04:31:21.347Z,16.70
2023-05-20T04:34:26.964Z,16.70
2023-05-20T04:37:32.143Z,16.80
2023-05-20T04:40:35.637Z,16.90
2023-05-20T04:43:40.486Z,17.10
2023-05-20T04:46:44.815Z,17.20
2023-05-20T04:49:47.989Z,17.30
2023-05-20T04:52:51.782Z,17.40
2023-05-20T04:55:57.002Z,17.50
2023-05-20T04:59:01.999Z,17.50
2023-05-20T05:02:05.472Z,17.60
2023-05-20T05:05:09.461Z,17.70
2023-05-20T05:08:12.761Z,17.80
2023-05-20T05:11:15.875Z,17.90
2023-05-20T05:14:20.456Z,18.00
2023-05-20T05:17:23.670Z,18.10
2023-05-20T05:20:26.752Z,18.10
2023-05-20T05:23:29.897Z,18.10
2023-05-20T05:26:33.042Z,18.10
2023-05-20T05:29:37.621Z,18.10
2023-05-20T05:32:43.711Z,18.00
2023-05-20T05:35:46.875Z,17.90
2023-05-20T05:38:50.043Z,17.90
2023-05-20T05:41:54.265Z,17.90
2023-05-20T05:44:58.959Z,17.80
2023-05-20T05:48:02.214Z,17.70
2023-05-20T05:51:06.155Z,17.60
2023-05-20T05:54:09.369Z,17.50
2023-05-20T05:57:12.513Z,17.50
2023-05-20T06:00:18.173Z,17.60
2023-05-20T06:03:21.400Z,17.80
2023-05-20T06:06:24.666Z,18.00
2023-05-20T06:09:27.908Z,18.10
2023-05-20T06:12:31.142Z,18.30
2023-05-20T06:15:36.543Z,18.60
2023-05-20T06:18:40.040Z,19.10
2023-05-20T06:21:43.198Z,19.40
2023-05-20T06:24:46.349Z,20.00
2023-05-20T06:27:49.734Z,20.50
2023-05-20T06:30:56.025Z,20.90
2023-05-20T06:33:59.259Z,21.30
2023-05-20T06:37:02.533Z,22.30
2023-05-20T06:40:07.010Z,23.40
2023-05-20T06:43:10.174Z,24.30
2023-05-20T06:46:14.712Z,25.00
2023-05-20T06:49:17.911Z,25.00
2023-05-20T06:52:21.013Z,24.60
2023-05-20T06:55:24.203Z,24.40
2023-05-20T06:58:27.482Z,24.50
2023-05-20T07:01:32.076Z,25.50
2023-05-20T07:04:35.262Z,26.60
2023-05-20T07:07:38.371Z,27.40
2023-05-20T07:10:41.580Z,28.40
2023-05-20T07:13:44.746Z,29.30
2023-05-20T07:16:49.262Z,29.80
2023-05-20T07:19:52.559Z,30.40
2023-05-20T07:22:55.696Z,31.00
2023-05-20T07:25:58.887Z,31.50
2023-05-20T07:29:02.116Z,32.50
2023-05-20T07:32:07.610Z,33.20
2023-05-20T07:35:11.135Z,33.30
2023-05-20T07:38:14.333Z,32.00
2023-05-20T07:41:17.475Z,30.40
2023-05-20T07:44:22.240Z,28.90
2023-05-20T07:47:26.779Z,27.80
2023-05-20T07:50:30.152Z,26.20
2023-05-20T07:53:33.755Z,25.30
2023-05-20T07:56:37.054Z,24.90
2023-05-20T07:59:40.256Z,24.50
2023-05-20T08:02:45.060Z,24.20
2023-05-20T08:05:48.291Z,23.50
2023-05-20T08:08:51.601Z,23.20
2023-05-20T08:11:54.741Z,23.00
2023-05-20T08:14:57.815Z,22.90
2023-05-20T08:18:02.397Z,23.20
2023-05-20T08:21:07.992Z,23.40
2023-05-20T08:24:11.232Z,23.50
2023-05-20T08:27:14.490Z,23.80
2023-05-20T08:30:17.634Z,24.20
2023-05-20T08:33:22.753Z,24.80
2023-05-20T08:36:27.600Z,25.30
2023-05-20T08:39:30.715Z,25.10
2023-05-20T08:42:34.375Z,25.30
2023-05-20T08:45:39.989Z,25.50
2023-05-20T08:48:44.724Z,25.60
2023-05-20T08:51:48.357Z,25.90
2023-05-20T08:54:52.963Z,25.90
2023-05-20T08:57:57.259Z,26.30
2023-05-20T09:01:01.049Z,26.50
2023-05-20T09:04:06.045Z,26.70
2023-05-20T09:07:09.260Z,26.90
2023-05-20T09:10:12.610Z,27.00
2023-05-20T09:13:18.417Z,26.90
2023-05-20T09:16:21.591Z,26.50
2023-05-20T09:19:26.633Z,26.30
2023-05-20T09:22:32.796Z,26.20
2023-05-20T09:25:36.956Z,26.10
2023-05-20T09:28:41.099Z,26.00
2023-05-20T09:31:44.643Z,26.40
2023-05-20T09:34:49.553Z,27.00
2023-05-20T09:37:54.973Z,27.20
2023-05-20T09:41:01.659Z,26.90
2023-05-20T09:44:06.794Z,26.70
2023-05-20T09:47:10.867Z,26.60
2023-05-20T09:50:17.131Z,26.40
2023-05-20T09:53:21.082Z,26.50
2023-05-20T09:56:26.549Z,26.30
2023-05-20T09:59:32.733Z,25.90
2023-05-20T10:02:36.849Z,25.70
2023-05-20T10:05:46.721Z,25.60
2023-05-20T10:09:07.479Z,25.60
2023-05-20T10:12:21.239Z,25.90
2023-05-20T10:15:30.006Z,26.00
2023-05-20T10:18:46.966Z,26.60
2023-05-20T10:22:00.236Z,27.40
2023-05-20T10:25:07.916Z,27.80
2023-05-20T10:28:11.982Z,28.10
2023-05-20T10:31:19.522Z,27.90
2023-05-20T10:34:24.055Z,27.60
2023-05-20T10:37:29.368Z,27.20
2023-05-20T10:40:32.948Z,27.00
2023-05-20T10:43:36.415Z,26.90
2023-05-20T10:46:54.365Z,27.00
2023-05-20T10:50:06.057Z,27.20
2023-05-20T10:53:29.402Z,26.60
2023-05-20T10:56:36.454Z,26.50
2023-05-20T10:59:39.827Z,26.80
2023-05-20T11:02:43.594Z,27.20
2023-05-20T11:05:47.519Z,27.70
2023-05-20T11:08:52.047Z,27.60
2023-05-20T11:11:56.225Z,27.40
2023-05-20T11:14:59.339Z,27.60
2023-05-20T11:18:03.895Z,27.90
2023-05-20T11:21:07.129Z,27.50
2023-05-20T11:24:11.996Z,27.50
2023-05-20T11:27:15.197Z,27.40
2023-05-20T11:30:20.632Z,27.50
2023-05-20T11:33:27.797Z,27.60
2023-05-20T11:36:31.159Z,27.30
2023-05-20T11:39:35.644Z,27.10
2023-05-20T11:42:38.857Z,27.00
2023-05-20T11:45:43.064Z,26.90
2023-05-20T11:48:53.208Z,27.00
2023-05-20T11:51:57.680Z,27.10
2023-05-20T11:55:02.208Z,27.10
2023-05-20T11:58:05.433Z,27.20
2023-05-20T12:01:20.942Z,27.20
2023-05-20T12:04:25.390Z,27.10
2023-05-20T12:07:28.568Z,27.00
2023-05-20T12:10:33.426Z,26.90
2023-05-20T12:13:36.701Z,26.60
2023-05-20T12:16:40.064Z,26.20
2023-05-20T12:19:45.492Z,25.80
2023-05-20T12:22:49.479Z,25.80
2023-05-20T12:25:54.024Z,26.10
2023-05-20T12:28:57.573Z,26.20
2023-05-20T12:32:01.566Z,26.30
2023-05-20T12:35:04.898Z,26.40
2023-05-20T12:38:08.501Z,26.40
2023-05-20T12:41:13.009Z,25.80
2023-05-20T12:44:16.192Z,25.90
2023-05-20T12:47:19.563Z,25.80
2023-05-20T12:50:22.957Z,25.80
2023-05-20T12:53:26.244Z,25.70
2023-05-20T12:56:30.910Z,25.90
2023-05-20T12:59:34.064Z,26.20
2023-05-20T13:02:39.690Z,26.10
2023-05-20T13:05:43.197Z,26.20
2023-05-20T13:08:46.506Z,26.30
2023-05-20T13:11:51.057Z,26.40
2023-05-20T13:14:54.325Z,26.50
2023-05-20T13:18:01.560Z,26.10
2023-05-20T13:21:05.190Z,26.10
2023-05-20T13:24:09.031Z,26.10
2023-05-20T13:27:13.770Z,26.00
2023-05-20T13:30:16.936Z,26.00
2023-05-20T13:33:20.073Z,25.80
2023-05-20T13:36:23.263Z,25.90
2023-05-20T13:39:27.266Z,25.80
2023-05-20T13:42:31.988Z,25.40
2023-05-20T13:45:35.126Z,25.10
2023-05-20T13:48:38.388Z,24.90
2023-05-20T13:51:41.536Z,24.90
2023-05-20T13:54:46.855Z,24.80
2023-05-20T13:57:53.366Z,24.80
2023-05-20T14:00:57.082Z,24.90
2023-05-20T14:04:00.335Z,25.00
2023-05-20T14:07:03.545Z,25.20
2023-05-20T14:10:09.289Z,25.40
2023-05-20T14:13:13.834Z,25.70
2023-05-20T14:16:17.196Z,26.00
2023-05-20T14:19:20.491Z,26.30
2023-05-20T14:22:23.698Z,26.50
2023-05-20T14:25:27.886Z,26.40
2023-05-20T14:28:32.440Z,26.50
2023-05-20T14:31:35.616Z,26.70
2023-05-20T14:34:38.794Z,26.70
2023-05-20T14:37:42.035Z,26.50
2023-05-20T14:40:45.365Z,26.50
2023-05-20T14:43:49.889Z,26.30
2023-05-20T14:46:53.186Z,26.10
2023-05-20T14:49:57.248Z,25.90
2023-05-20T14:53:00.411Z,25.50
2023-05-20T14:56:03.693Z,25.10
2023-05-20T14:59:08.510Z,24.80
2023-05-20T15:02:13.395Z,24.80
2023-05-20T15:05:18.756Z,24.90
2023-05-20T15:08:22.159Z,25.00
2023-05-20T15:11:25.309Z,24.80
2023-05-20T15:14:29.989Z,24.80
2023-05-20T15:17:33.174Z,24.90
2023-05-20T15:20:36.418Z,25.00
2023-05-20T15:23:39.562Z,25.10
2023-05-20T15:26:42.713Z,25.10
2023-05-20T15:29:48.681Z,25.20
2023-05-20T15:32:51.920Z,25.20
2023-05-20T15:35:55.241Z,25.00
2023-05-20T15:38:58.436Z,25.00
2023-05-20T15:42:03.018Z,25.00
2023-05-20T15:45:08.399Z,24.90
2023-05-20T15:48:11.832Z,24.90
2023-05-20T15:51:15.656Z,24.90
2023-05-20T15:54:20.112Z,25.00
2023-05-20T15:57:23.538Z,25.00
2023-05-20T16:00:28.333Z,24.90
2023-05-20T16:03:32.137Z,24.80
2023-05-20T16:06:35.865Z,24.80
2023-05-20T16:09:39.110Z,24.60
2023-05-20T16:12:42.308Z,24.40
2023-05-20T16:15:46.999Z,24.40
2023-05-20T16:18:50.305Z,24.20
2023-05-20T16:21:53.488Z,24.10
2023-05-20T16:24:56.680Z,24.00
2023-05-20T16:28:01.101Z,23.80
2023-05-20T16:31:06.092Z,23.70
2023-05-20T16:34:09.327Z,23.50
2023-05-20T16:37:13.348Z,23.40
2023-05-20T16:40:16.587Z,23.30
2023-05-20T16:43:19.752Z,23.20
2023-05-20T16:46:24.275Z,23.10
2023-05-20T16:49:27.477Z,23.00
2023-05-20T16:52:30.806Z,23.00
2023-05-20T16:55:33.973Z,22.90
2023-05-20T16:58:37.243Z,22.80
2023-05-20T17:01:42.026Z,22.80
2023-05-20T17:04:45.223Z,22.80
2023-05-20T17:07:49.852Z,22.70
2023-05-20T17:10:54.178Z,22.20
2023-05-20T17:13:57.613Z,21.90
2023-05-20T17:17:02.197Z,21.60
2023-05-20T17:20:06.570Z,21.20
2023-05-20T17:23:09.815Z,21.00
2023-05-20T17:26:12.964Z,20.90
2023-05-20T17:29:16.258Z,20.90
2023-05-20T17:32:20.788Z,20.80
2023-05-20T17:35:25.746Z,20.40
2023-05-20T17:38:28.952Z,20.50
2023-05-20T17:41:32.141Z,20.60
2023-05-20T17:44:35.345Z,20.70
2023-05-20T17:47:39.919Z,20.60
2023-05-20T17:50:43.217Z,20.70
2023-05-20T17:53:46.824Z,20.70
2023-05-20T17:56:51.054Z,20.70
2023-05-20T17:59:54.678Z,20.80
2023-05-20T18:02:59.969Z,20.70
2023-05-20T18:06:05.631Z,20.80
2023-05-20T18:09:09.198Z,20.80
2023-05-20T18:12:12.453Z,20.90
2023-05-20T18:15:20.595Z,20.80
2023-05-20T18:18:25.106Z,20.80
2023-05-20T18:21:28.472Z,20.70
2023-05-20T18:24:31.610Z,20.70
2023-05-20T18:27:34.849Z,20.70
2023-05-20T18:30:38.011Z,20.70
2023-05-20T18:33:43.154Z,20.60
2023-05-20T18:36:46.442Z,20.60
2023-05-20T18:39:49.576Z,20.50
2023-05-20T18:42:52.672Z,20.40
2023-05-20T18:45:55.979Z,20.40
2023-05-20T18:49:00.646Z,20.30
2023-05-20T18:52:03.915Z,20.20
2023-05-20T18:55:08.070Z,20.10
2023-05-20T18:58:11.264Z,20.10
2023-05-20T19:01:14.429Z,20.10
2023-05-20T19:04:19.013Z,19.90
2023-05-20T19:07:22.853Z,19.90
2023-05-20T19:10:28.582Z,19.90
2023-05-20T19:13:32.467Z,19.90
2023-05-20T19:16:35.876Z,19.90
2023-05-20T19:19:40.558Z,19.90
2023-05-20T19:22:43.627Z,19.90
2023-05-20T19:25:46.885Z,19.80
2023-05-20T19:28:50.020Z,19.80
2023-05-20T19:31:53.234Z,19.70
2023-05-20T19:34:57.735Z,19.70
2023-05-20T19:38:01.332Z,19.60
2023-05-20T19:41:04.470Z,19.60
2023-05-20T19:44:08.691Z,19.50
2023-05-20T19:47:12.452Z,19.50
2023-05-20T19:50:17.193Z,19.50
2023-05-20T19:53:21.055Z,19.50
2023-05-20T19:56:24.356Z,19.40
2023-05-20T19:59:27.537Z,19.40
2023-05-20T20:02:30.942Z,19.50
2023-05-20T20:05:36.498Z,19.40
2023-05-20T20:08:40.222Z,19.40
2023-05-20T20:11:43.464Z,19.50
2023-05-20T20:14:46.634Z,19.40
2023-05-20T20:17:52.460Z,19.40
2023-05-20T20:20:59.791Z,19.40
2023-05-20T20:24:03.005Z,19.40
2023-05-20T20:27:06.529Z,19.40
2023-05-20T20:30:10.714Z,19.40
2023-05-20T20:33:13.940Z,19.40
2023-05-20T20:36:18.614Z,19.20
2023-05-20T20:39:23.862Z,19.20
2023-05-20T20:42:27.956Z,19.10
2023-05-20T20:45:31.091Z,19.10
2023-05-20T20:48:34.640Z,19.00
2023-05-20T20:51:39.279Z,19.00
2023-05-20T20:54:43.388Z,18.80
2023-05-20T20:57:48.055Z,18.70
2023-05-20T21:00:51.351Z,18.60
2023-05-20T21:03:54.647Z,18.50
2023-05-20T21:07:02.099Z,18.40
2023-05-20T21:10:07.425Z,18.40
2023-05-20T21:13:11.052Z,18.40
2023-05-20T21:16:14.212Z,18.30
2023-05-20T21:19:17.439Z,18.30
2023-05-20T21:22:22.201Z,18.30
2023-05-20T21:25:25.340Z,18.30
2023-05-20T21:28:28.426Z,18.20
2023-05-20T21:31:31.574Z,18.20
2023-05-20T21:34:34.853Z,18.10
2023-05-20T21:37:39.413Z,18.10
2023-05-20T21:40:42.545Z,18.00
2023-05-20T21:43:45.681Z,18.00
2023-05-20T21:46:48.989Z,17.90
2023-05-20T21:49:52.297Z,17.80
2023-05-20T21:52:56.898Z,17.80
2023-05-20T21:56:00.114Z,17.70
2023-05-20T21:59:03.261Z,17.70
2023-05-20T22:02:06.739Z,17.70
2023-05-20T22:05:11.871Z,17.60
2023-05-20T22:08:17.013Z,17.70
2023-05-20T22:11:21.723Z,17.70
2023-05-20T22:14:24.866Z,17.60
2023-05-20T22:17:28.105Z,17.70
2023-05-20T22:20:33.931Z,17.60
2023-05-20T22:23:38.458Z,17.60
2023-05-20T22:26:41.700Z,17.60
2023-05-20T22:29:44.824Z,17.50
2023-05-20T22:32:47.984Z,17.40
2023-05-20T22:35:51.441Z,17.40
2023-05-20T22:38:56.034Z,17.40
2023-05-20T22:41:59.125Z,17.40
2023-05-20T22:45:02.217Z,17.30
2023-05-20T22:48:05.483Z,17.30
2023-05-20T22:51:08.980Z,17.20
2023-05-20T22:54:13.449Z,17.20
2023-05-20T22:57:16.954Z,17.10
2023-05-20T23:00:20.180Z,17.10
2023-05-20T23:03:23.339Z,17.10
2023-05-20T23:06:26.900Z,17.00
2023-05-20T23:09:31.469Z,16.90
2023-05-20T23:12:34.822Z,16.90
2023-05-20T23:15:38.155Z,16.90
2023-05-20T23:18:41.414Z,16.90
2023-05-20T23:21:44.565Z,16.90
2023-05-20T23:24:49.052Z,16.80
2023-05-20T23:27:52.252Z,16.80
2023-05-20T23:30:55.573Z,16.70
2023-05-20T23:33:58.944Z,16.70
2023-05-20T23:37:02.102Z,16.60
2023-05-20T23:40:09.200Z,16.60
2023-05-20T23:43:12.399Z,16.60
2023-05-20T23:46:15.874Z,16.50
2023-05-20T23:49:24.422Z,16.50
2023-05-20T23:52:28.320Z,16.40
2023-05-20T23:55:32.869Z,16.40
2023-05-20T23:58:36.100Z,16.40
